Terminal Aerodrome Forecast
Issued by NWS

Home | Current Version | Previous Version | Text Only | Print | Product List | Glossary On
Versions: 1 2 3 4 5 6 7 8 9 10 11 12
806
FTUS45 KFGZ 270536
TAFPRC
TAF
KPRC 270536Z 2706/2806 23010KT P6SM SCT250
     FM271800 27015G25KT P6SM BKN250
     FM280300 27011KT P6SM BKN120=

USA.gov is the U.S. government's official web portal to all federal, state and local government web resources and services.